sensor_id;sensor_type;location;lat;lon;timestamp;P1;durP1;ratioP1;P2;durP2;ratioP2
3549;SDS011;45572;48.804;8.330;2023-03-31T00:02:02;4.10;;;1.45;;
3549;SDS011;45572;48.804;8.330;2023-03-31T00:04:32;4.45;;;2.97;;
3549;SDS011;45572;48.804;8.330;2023-03-31T00:07:00;5.50;;;2.00;;
3549;SDS011;45572;48.804;8.330;2023-03-31T00:09:31;11.38;;;2.40;;
3549;SDS011;45572;48.804;8.330;2023-03-31T00:12:00;7.18;;;2.75;;
3549;SDS011;45572;48.804;8.330;2023-03-31T00:14:28;6.10;;;1.70;;
3549;SDS011;45572;48.804;8.330;2023-03-31T00:16:57;4.40;;;2.00;;
3549;SDS011;45572;48.804;8.330;2023-03-31T00:19:27;17.67;;;2.63;;
3549;SDS011;45572;48.804;8.330;2023-03-31T00:21:58;8.55;;;1.75;;
3549;SDS011;45572;48.804;8.330;2023-03-31T00:24:27;5.35;;;1.63;;
3549;SDS011;45572;48.804;8.330;2023-03-31T00:26:57;8.07;;;1.25;;
3549;SDS011;45572;48.804;8.330;2023-03-31T00:29:25;8.15;;;2.20;;
3549;SDS011;45572;48.804;8.330;2023-03-31T00:31:54;7.70;;;1.45;;
3549;SDS011;45572;48.804;8.330;2023-03-31T00:34:23;3.55;;;1.25;;
3549;SDS011;45572;48.804;8.330;2023-03-31T00:36:51;6.95;;;2.13;;
3549;SDS011;45572;48.804;8.330;2023-03-31T00:39:21;7.18;;;2.33;;
3549;SDS011;45572;48.804;8.330;2023-03-31T00:41:50;14.02;;;1.92;;
3549;SDS011;45572;48.804;8.330;2023-03-31T00:44:18;3.85;;;1.65;;
3549;SDS011;45572;48.804;8.330;2023-03-31T00:46:50;5.45;;;1.95;;
3549;SDS011;45572;48.804;8.330;2023-03-31T00:49:24;6.85;;;1.70;;
3549;SDS011;45572;48.804;8.330;2023-03-31T00:51:56;2.80;;;1.30;;
3549;SDS011;45572;48.804;8.330;2023-03-31T00:54:29;5.72;;;2.22;;
3549;SDS011;45572;48.804;8.330;2023-03-31T00:56:59;4.57;;;1.50;;
3549;SDS011;45572;48.804;8.330;2023-03-31T00:59:29;4.97;;;2.28;;
3549;SDS011;45572;48.804;8.330;2023-03-31T01:02:00;4.07;;;1.33;;
3549;SDS011;45572;48.804;8.330;2023-03-31T01:04:32;10.52;;;1.75;;
3549;SDS011;45572;48.804;8.330;2023-03-31T01:07:04;8.82;;;1.42;;
3549;SDS011;45572;48.804;8.330;2023-03-31T01:09:37;8.57;;;3.25;;
3549;SDS011;45572;48.804;8.330;2023-03-31T01:12:07;9.20;;;1.95;;
3549;SDS011;45572;48.804;8.330;2023-03-31T01:14:36;5.70;;;1.80;;
3549;SDS011;45572;48.804;8.330;2023-03-31T01:17:04;4.80;;;2.05;;
3549;SDS011;45572;48.804;8.330;2023-03-31T01:19:40;3.63;;;1.67;;
3549;SDS011;45572;48.804;8.330;2023-03-31T01:25:19;7.35;;;1.77;;
3549;SDS011;45572;48.804;8.330;2023-03-31T01:28:10;8.75;;;2.70;;
3549;SDS011;45572;48.804;8.330;2023-03-31T01:33:46;7.15;;;2.53;;
3549;SDS011;45572;48.804;8.330;2023-03-31T01:36:32;13.45;;;2.53;;
3549;SDS011;45572;48.804;8.330;2023-03-31T01:39:18;4.85;;;2.30;;
3549;SDS011;45572;48.804;8.330;2023-03-31T01:42:02;6.80;;;2.72;;
3549;SDS011;45572;48.804;8.330;2023-03-31T01:44:39;6.60;;;1.90;;
3549;SDS011;45572;48.804;8.330;2023-03-31T01:47:13;6.82;;;3.00;;
3549;SDS011;45572;48.804;8.330;2023-03-31T01:49:50;12.90;;;2.60;;
3549;SDS011;45572;48.804;8.330;2023-03-31T01:52:26;5.90;;;2.08;;
3549;SDS011;45572;48.804;8.330;2023-03-31T01:55:03;8.00;;;3.30;;
3549;SDS011;45572;48.804;8.330;2023-03-31T01:57:37;10.52;;;3.33;;
3549;SDS011;45572;48.804;8.330;2023-03-31T02:00:08;5.30;;;3.05;;
3549;SDS011;45572;48.804;8.330;2023-03-31T02:03:06;4.03;;;2.30;;
3549;SDS011;45572;48.804;8.330;2023-03-31T02:05:39;4.20;;;2.53;;
3549;SDS011;45572;48.804;8.330;2023-03-31T02:08:12;6.20;;;2.30;;
3549;SDS011;45572;48.804;8.330;2023-03-31T02:10:43;11.75;;;3.60;;
3549;SDS011;45572;48.804;8.330;2023-03-31T02:13:12;5.03;;;2.30;;
3549;SDS011;45572;48.804;8.330;2023-03-31T02:15:44;6.65;;;2.75;;
3549;SDS011;45572;48.804;8.330;2023-03-31T02:18:17;6.80;;;2.70;;
3549;SDS011;45572;48.804;8.330;2023-03-31T02:20:51;4.50;;;1.98;;
3549;SDS011;45572;48.804;8.330;2023-03-31T02:23:23;4.15;;;2.28;;
3549;SDS011;45572;48.804;8.330;2023-03-31T02:25:56;11.27;;;2.40;;
3549;SDS011;45572;48.804;8.330;2023-03-31T02:28:30;9.18;;;2.30;;
3549;SDS011;45572;48.804;8.330;2023-03-31T02:31:02;9.50;;;2.88;;
3549;SDS011;45572;48.804;8.330;2023-03-31T02:33:36;6.88;;;1.85;;
3549;SDS011;45572;48.804;8.330;2023-03-31T02:36:03;12.93;;;3.40;;
3549;SDS011;45572;48.804;8.330;2023-03-31T02:38:34;5.30;;;1.80;;
3549;SDS011;45572;48.804;8.330;2023-03-31T02:41:05;6.70;;;2.20;;
3549;SDS011;45572;48.804;8.330;2023-03-31T02:43:33;6.53;;;2.47;;
3549;SDS011;45572;48.804;8.330;2023-03-31T02:46:01;5.03;;;1.77;;
3549;SDS011;45572;48.804;8.330;2023-03-31T02:48:30;4.53;;;1.90;;
3549;SDS011;45572;48.804;8.330;2023-03-31T02:51:16;6.32;;;2.00;;
3549;SDS011;45572;48.804;8.330;2023-03-31T02:54:02;8.10;;;2.45;;
3549;SDS011;45572;48.804;8.330;2023-03-31T02:56:54;6.72;;;2.03;;
3549;SDS011;45572;48.804;8.330;2023-03-31T02:59:41;8.13;;;1.95;;
3549;SDS011;45572;48.804;8.330;2023-03-31T03:02:24;6.90;;;3.38;;
3549;SDS011;45572;48.804;8.330;2023-03-31T03:05:07;10.00;;;2.47;;
3549;SDS011;45572;48.804;8.330;2023-03-31T03:08:07;6.97;;;2.50;;
3549;SDS011;45572;48.804;8.330;2023-03-31T03:10:43;6.47;;;2.25;;
3549;SDS011;45572;48.804;8.330;2023-03-31T03:13:21;4.30;;;2.20;;
3549;SDS011;45572;48.804;8.330;2023-03-31T03:15:55;3.78;;;1.60;;
3549;SDS011;45572;48.804;8.330;2023-03-31T03:18:28;11.85;;;2.50;;
3549;SDS011;45572;48.804;8.330;2023-03-31T03:20:56;6.88;;;2.45;;
3549;SDS011;45572;48.804;8.330;2023-03-31T03:23:26;6.80;;;2.42;;
3549;SDS011;45572;48.804;8.330;2023-03-31T03:25:54;5.50;;;2.90;;
3549;SDS011;45572;48.804;8.330;2023-03-31T03:28:22;7.05;;;2.83;;
3549;SDS011;45572;48.804;8.330;2023-03-31T03:30:50;8.05;;;2.58;;
3549;SDS011;45572;48.804;8.330;2023-03-31T03:33:18;8.57;;;2.75;;
3549;SDS011;45572;48.804;8.330;2023-03-31T03:35:50;14.15;;;2.60;;
3549;SDS011;45572;48.804;8.330;2023-03-31T03:38:18;5.47;;;2.20;;
3549;SDS011;45572;48.804;8.330;2023-03-31T03:40:51;10.63;;;2.58;;
3549;SDS011;45572;48.804;8.330;2023-03-31T03:43:19;7.25;;;2.30;;
3549;SDS011;45572;48.804;8.330;2023-03-31T03:45:47;10.18;;;2.55;;
3549;SDS011;45572;48.804;8.330;2023-03-31T03:48:15;7.85;;;2.50;;
3549;SDS011;45572;48.804;8.330;2023-03-31T03:50:43;7.53;;;2.30;;
3549;SDS011;45572;48.804;8.330;2023-03-31T03:53:11;7.18;;;3.47;;
3549;SDS011;45572;48.804;8.330;2023-03-31T03:55:40;6.35;;;3.75;;
3549;SDS011;45572;48.804;8.330;2023-03-31T03:58:09;5.75;;;3.17;;
3549;SDS011;45572;48.804;8.330;2023-03-31T04:00:38;6.35;;;2.50;;
3549;SDS011;45572;48.804;8.330;2023-03-31T04:03:05;5.32;;;3.05;;
3549;SDS011;45572;48.804;8.330;2023-03-31T04:05:33;6.97;;;3.40;;
3549;SDS011;45572;48.804;8.330;2023-03-31T04:08:01;6.13;;;2.63;;
3549;SDS011;45572;48.804;8.330;2023-03-31T04:10:29;5.50;;;2.67;;
3549;SDS011;45572;48.804;8.330;2023-03-31T04:12:57;10.45;;;3.05;;
3549;SDS011;45572;48.804;8.330;2023-03-31T04:15:26;3.88;;;2.72;;
3549;SDS011;45572;48.804;8.330;2023-03-31T04:17:55;6.93;;;3.00;;
3549;SDS011;45572;48.804;8.330;2023-03-31T04:20:23;13.98;;;3.75;;
3549;SDS011;45572;48.804;8.330;2023-03-31T04:22:52;8.43;;;3.78;;
3549;SDS011;45572;48.804;8.330;2023-03-31T04:25:20;5.35;;;3.20;;
3549;SDS011;45572;48.804;8.330;2023-03-31T04:27:49;8.05;;;3.80;;
3549;SDS011;45572;48.804;8.330;2023-03-31T04:30:20;7.28;;;4.40;;
3549;SDS011;45572;48.804;8.330;2023-03-31T04:32:51;7.85;;;3.40;;
3549;SDS011;45572;48.804;8.330;2023-03-31T04:35:20;11.07;;;3.70;;
3549;SDS011;45572;48.804;8.330;2023-03-31T04:37:50;12.10;;;3.85;;
3549;SDS011;45572;48.804;8.330;2023-03-31T04:40:24;10.43;;;4.55;;
3549;SDS011;45572;48.804;8.330;2023-03-31T04:42:52;9.05;;;5.30;;
3549;SDS011;45572;48.804;8.330;2023-03-31T04:45:19;7.55;;;4.53;;
3549;SDS011;45572;48.804;8.330;2023-03-31T04:47:48;7.53;;;4.90;;
3549;SDS011;45572;48.804;8.330;2023-03-31T04:50:17;9.95;;;4.57;;
3549;SDS011;45572;48.804;8.330;2023-03-31T04:52:45;11.07;;;4.97;;
3549;SDS011;45572;48.804;8.330;2023-03-31T04:55:13;12.82;;;4.93;;
3549;SDS011;45572;48.804;8.330;2023-03-31T04:57:41;9.75;;;4.45;;
3549;SDS011;45572;48.804;8.330;2023-03-31T05:00:09;11.02;;;4.95;;
3549;SDS011;45572;48.804;8.330;2023-03-31T05:02:39;11.18;;;4.68;;
3549;SDS011;45572;48.804;8.330;2023-03-31T05:05:09;9.55;;;4.82;;
3549;SDS011;45572;48.804;8.330;2023-03-31T05:07:38;11.30;;;5.53;;
3549;SDS011;45572;48.804;8.330;2023-03-31T05:10:09;9.95;;;5.65;;
3549;SDS011;45572;48.804;8.330;2023-03-31T05:12:37;12.23;;;5.53;;
3549;SDS011;45572;48.804;8.330;2023-03-31T05:15:06;9.02;;;4.47;;
3549;SDS011;45572;48.804;8.330;2023-03-31T05:17:35;7.72;;;4.47;;
3549;SDS011;45572;48.804;8.330;2023-03-31T05:20:04;17.60;;;6.00;;
3549;SDS011;45572;48.804;8.330;2023-03-31T05:22:35;12.40;;;5.65;;
3549;SDS011;45572;48.804;8.330;2023-03-31T05:25:05;12.75;;;5.32;;
3549;SDS011;45572;48.804;8.330;2023-03-31T05:27:34;10.38;;;5.47;;
3549;SDS011;45572;48.804;8.330;2023-03-31T05:30:03;10.07;;;5.68;;
3549;SDS011;45572;48.804;8.330;2023-03-31T05:32:31;8.77;;;5.40;;
3549;SDS011;45572;48.804;8.330;2023-03-31T05:34:59;8.10;;;5.78;;
3549;SDS011;45572;48.804;8.330;2023-03-31T05:37:26;12.48;;;6.20;;
3549;SDS011;45572;48.804;8.330;2023-03-31T05:39:55;12.45;;;5.47;;
3549;SDS011;45572;48.804;8.330;2023-03-31T05:42:23;11.95;;;5.40;;
3549;SDS011;45572;48.804;8.330;2023-03-31T05:44:51;10.20;;;6.85;;
3549;SDS011;45572;48.804;8.330;2023-03-31T05:47:19;15.13;;;6.00;;
3549;SDS011;45572;48.804;8.330;2023-03-31T05:49:48;12.52;;;6.70;;
3549;SDS011;45572;48.804;8.330;2023-03-31T05:52:16;14.70;;;7.20;;
3549;SDS011;45572;48.804;8.330;2023-03-31T05:54:44;20.40;;;7.18;;
3549;SDS011;45572;48.804;8.330;2023-03-31T05:57:13;14.23;;;7.95;;
3549;SDS011;45572;48.804;8.330;2023-03-31T05:59:41;16.25;;;7.43;;
3549;SDS011;45572;48.804;8.330;2023-03-31T06:02:10;10.73;;;7.15;;
3549;SDS011;45572;48.804;8.330;2023-03-31T06:04:40;13.95;;;8.63;;
3549;SDS011;45572;48.804;8.330;2023-03-31T06:07:08;21.10;;;7.38;;
3549;SDS011;45572;48.804;8.330;2023-03-31T06:09:36;12.07;;;6.88;;
3549;SDS011;45572;48.804;8.330;2023-03-31T06:12:04;15.50;;;6.45;;
3549;SDS011;45572;48.804;8.330;2023-03-31T06:14:34;13.55;;;6.47;;
3549;SDS011;45572;48.804;8.330;2023-03-31T06:17:02;14.27;;;6.90;;
3549;SDS011;45572;48.804;8.330;2023-03-31T06:19:32;12.55;;;6.90;;
3549;SDS011;45572;48.804;8.330;2023-03-31T06:22:05;12.50;;;7.32;;
3549;SDS011;45572;48.804;8.330;2023-03-31T06:24:36;15.05;;;7.43;;
3549;SDS011;45572;48.804;8.330;2023-03-31T06:27:05;8.70;;;5.55;;
3549;SDS011;45572;48.804;8.330;2023-03-31T06:29:34;10.23;;;4.80;;
3549;SDS011;45572;48.804;8.330;2023-03-31T06:32:02;5.78;;;3.28;;
3549;SDS011;45572;48.804;8.330;2023-03-31T06:34:30;9.80;;;4.57;;
3549;SDS011;45572;48.804;8.330;2023-03-31T06:37:01;5.03;;;3.60;;
3549;SDS011;45572;48.804;8.330;2023-03-31T06:39:29;5.20;;;3.40;;
3549;SDS011;45572;48.804;8.330;2023-03-31T06:41:58;9.68;;;3.53;;
3549;SDS011;45572;48.804;8.330;2023-03-31T06:44:27;8.30;;;3.50;;
3549;SDS011;45572;48.804;8.330;2023-03-31T06:46:57;5.55;;;2.22;;
3549;SDS011;45572;48.804;8.330;2023-03-31T06:49:25;6.68;;;2.97;;
3549;SDS011;45572;48.804;8.330;2023-03-31T06:51:52;5.28;;;2.85;;
3549;SDS011;45572;48.804;8.330;2023-03-31T06:54:22;6.13;;;3.30;;
3549;SDS011;45572;48.804;8.330;2023-03-31T06:56:52;5.50;;;2.92;;
3549;SDS011;45572;48.804;8.330;2023-03-31T06:59:20;8.05;;;3.00;;
3549;SDS011;45572;48.804;8.330;2023-03-31T07:01:50;3.50;;;2.50;;
3549;SDS011;45572;48.804;8.330;2023-03-31T07:04:21;8.30;;;2.85;;
3549;SDS011;45572;48.804;8.330;2023-03-31T07:06:53;4.38;;;1.52;;
3549;SDS011;45572;48.804;8.330;2023-03-31T07:09:21;3.20;;;2.00;;
3549;SDS011;45572;48.804;8.330;2023-03-31T07:11:49;2.30;;;1.73;;
3549;SDS011;45572;48.804;8.330;2023-03-31T07:14:17;1.40;;;1.25;;
3549;SDS011;45572;48.804;8.330;2023-03-31T07:16:46;7.68;;;1.98;;
3549;SDS011;45572;48.804;8.330;2023-03-31T07:19:15;3.63;;;1.95;;
3549;SDS011;45572;48.804;8.330;2023-03-31T07:21:45;3.75;;;1.95;;
3549;SDS011;45572;48.804;8.330;2023-03-31T07:24:13;2.63;;;1.42;;
3549;SDS011;45572;48.804;8.330;2023-03-31T07:26:41;2.60;;;1.45;;
3549;SDS011;45572;48.804;8.330;2023-03-31T07:29:08;5.70;;;1.48;;
3549;SDS011;45572;48.804;8.330;2023-03-31T07:31:36;2.78;;;1.05;;
3549;SDS011;45572;48.804;8.330;2023-03-31T07:34:04;4.47;;;2.20;;
3549;SDS011;45572;48.804;8.330;2023-03-31T07:36:32;6.93;;;1.55;;
3549;SDS011;45572;48.804;8.330;2023-03-31T07:39:04;2.42;;;1.00;;
3549;SDS011;45572;48.804;8.330;2023-03-31T07:41:32;1.88;;;1.05;;
3549;SDS011;45572;48.804;8.330;2023-03-31T07:44:01;4.63;;;1.48;;
3549;SDS011;45572;48.804;8.330;2023-03-31T07:46:29;4.10;;;1.60;;
3549;SDS011;45572;48.804;8.330;2023-03-31T07:48:57;5.47;;;1.50;;
3549;SDS011;45572;48.804;8.330;2023-03-31T07:51:27;5.68;;;1.50;;
3549;SDS011;45572;48.804;8.330;2023-03-31T07:53:55;8.38;;;2.90;;
3549;SDS011;45572;48.804;8.330;2023-03-31T07:56:29;11.85;;;3.78;;
3549;SDS011;45572;48.804;8.330;2023-03-31T07:58:59;4.45;;;2.00;;
3549;SDS011;45572;48.804;8.330;2023-03-31T08:01:26;7.28;;;1.67;;
3549;SDS011;45572;48.804;8.330;2023-03-31T08:03:58;3.47;;;1.58;;
3549;SDS011;45572;48.804;8.330;2023-03-31T08:06:29;8.45;;;2.00;;
3549;SDS011;45572;48.804;8.330;2023-03-31T08:08:58;4.13;;;1.90;;
3549;SDS011;45572;48.804;8.330;2023-03-31T08:11:26;5.63;;;1.35;;
3549;SDS011;45572;48.804;8.330;2023-03-31T08:13:57;2.65;;;1.58;;
3549;SDS011;45572;48.804;8.330;2023-03-31T08:16:27;4.07;;;1.33;;
3549;SDS011;45572;48.804;8.330;2023-03-31T08:18:55;4.75;;;1.38;;
3549;SDS011;45572;48.804;8.330;2023-03-31T08:21:24;2.80;;;1.50;;
3549;SDS011;45572;48.804;8.330;2023-03-31T08:23:54;7.45;;;2.08;;
3549;SDS011;45572;48.804;8.330;2023-03-31T08:26:22;4.78;;;1.40;;
3549;SDS011;45572;48.804;8.330;2023-03-31T08:28:53;10.38;;;1.90;;
3549;SDS011;45572;48.804;8.330;2023-03-31T08:31:24;2.42;;;1.23;;
3549;SDS011;45572;48.804;8.330;2023-03-31T08:33:55;2.55;;;1.27;;
3549;SDS011;45572;48.804;8.330;2023-03-31T08:36:24;3.28;;;1.35;;
3549;SDS011;45572;48.804;8.330;2023-03-31T08:38:59;5.90;;;0.90;;
3549;SDS011;45572;48.804;8.330;2023-03-31T08:41:32;3.38;;;1.10;;
3549;SDS011;45572;48.804;8.330;2023-03-31T08:44:09;6.40;;;2.00;;
3549;SDS011;45572;48.804;8.330;2023-03-31T08:46:46;5.60;;;1.10;;
3549;SDS011;45572;48.804;8.330;2023-03-31T08:49:18;3.38;;;1.05;;
3549;SDS011;45572;48.804;8.330;2023-03-31T08:51:49;5.40;;;1.17;;
3549;SDS011;45572;48.804;8.330;2023-03-31T08:54:19;2.10;;;1.17;;
3549;SDS011;45572;48.804;8.330;2023-03-31T08:56:57;2.43;;;1.20;;
3549;SDS011;45572;48.804;8.330;2023-03-31T08:59:28;5.33;;;1.57;;
3549;SDS011;45572;48.804;8.330;2023-03-31T09:02:03;7.00;;;1.60;;
3549;SDS011;45572;48.804;8.330;2023-03-31T09:04:43;2.40;;;0.80;;
3549;SDS011;45572;48.804;8.330;2023-03-31T09:07:22;5.33;;;1.20;;
3549;SDS011;45572;48.804;8.330;2023-03-31T09:10:02;8.03;;;3.00;;
3549;SDS011;45572;48.804;8.330;2023-03-31T09:12:45;5.47;;;1.60;;
3549;SDS011;45572;48.804;8.330;2023-03-31T09:15:25;3.45;;;1.23;;
3549;SDS011;45572;48.804;8.330;2023-03-31T09:18:02;5.72;;;1.60;;
3549;SDS011;45572;48.804;8.330;2023-03-31T09:20:37;6.57;;;1.40;;
3549;SDS011;45572;48.804;8.330;2023-03-31T09:23:10;3.55;;;1.15;;
3549;SDS011;45572;48.804;8.330;2023-03-31T09:25:49;4.03;;;1.50;;
3549;SDS011;45572;48.804;8.330;2023-03-31T09:28:17;7.18;;;1.92;;
3549;SDS011;45572;48.804;8.330;2023-03-31T09:30:49;5.20;;;1.40;;
3549;SDS011;45572;48.804;8.330;2023-03-31T09:33:19;8.73;;;1.60;;
3549;SDS011;45572;48.804;8.330;2023-03-31T09:35:55;10.80;;;1.40;;
3549;SDS011;45572;48.804;8.330;2023-03-31T09:38:27;11.45;;;1.85;;
3549;SDS011;45572;48.804;8.330;2023-03-31T09:40:56;8.38;;;1.77;;
3549;SDS011;45572;48.804;8.330;2023-03-31T09:43:25;11.52;;;2.20;;
3549;SDS011;45572;48.804;8.330;2023-03-31T09:45:56;4.88;;;2.42;;
3549;SDS011;45572;48.804;8.330;2023-03-31T09:48:40;6.68;;;1.52;;
3549;SDS011;45572;48.804;8.330;2023-03-31T09:51:19;6.93;;;2.30;;
3549;SDS011;45572;48.804;8.330;2023-03-31T09:53:54;4.10;;;1.63;;
3549;SDS011;45572;48.804;8.330;2023-03-31T09:56:31;5.57;;;1.65;;
3549;SDS011;45572;48.804;8.330;2023-03-31T09:59:02;6.25;;;1.88;;
3549;SDS011;45572;48.804;8.330;2023-03-31T10:01:32;3.17;;;1.67;;
3549;SDS011;45572;48.804;8.330;2023-03-31T10:04:02;7.63;;;2.17;;
3549;SDS011;45572;48.804;8.330;2023-03-31T10:06:36;7.07;;;2.20;;
3549;SDS011;45572;48.804;8.330;2023-03-31T10:09:08;9.95;;;1.60;;
3549;SDS011;45572;48.804;8.330;2023-03-31T10:11:39;8.63;;;2.40;;
3549;SDS011;45572;48.804;8.330;2023-03-31T10:14:24;10.45;;;1.70;;
3549;SDS011;45572;48.804;8.330;2023-03-31T10:17:04;4.10;;;1.73;;
3549;SDS011;45572;48.804;8.330;2023-03-31T10:19:34;7.57;;;1.90;;
3549;SDS011;45572;48.804;8.330;2023-03-31T10:22:13;4.55;;;1.92;;
3549;SDS011;45572;48.804;8.330;2023-03-31T10:24:44;8.85;;;1.70;;
3549;SDS011;45572;48.804;8.330;2023-03-31T10:27:16;5.90;;;1.35;;
3549;SDS011;45572;48.804;8.330;2023-03-31T10:29:50;9.07;;;2.00;;
3549;SDS011;45572;48.804;8.330;2023-03-31T10:32:24;6.53;;;2.25;;
3549;SDS011;45572;48.804;8.330;2023-03-31T10:34:54;8.80;;;1.50;;
3549;SDS011;45572;48.804;8.330;2023-03-31T10:37:27;6.72;;;1.77;;
3549;SDS011;45572;48.804;8.330;2023-03-31T10:39:59;8.52;;;3.25;;
3549;SDS011;45572;48.804;8.330;2023-03-31T10:42:32;12.63;;;3.42;;
3549;SDS011;45572;48.804;8.330;2023-03-31T10:48:04;2.58;;;1.00;;
3549;SDS011;45572;48.804;8.330;2023-03-31T10:50:44;6.22;;;1.10;;
3549;SDS011;45572;48.804;8.330;2023-03-31T10:53:12;7.20;;;1.30;;
3549;SDS011;45572;48.804;8.330;2023-03-31T10:55:45;1.77;;;0.73;;
3549;SDS011;45572;48.804;8.330;2023-03-31T10:58:26;3.90;;;1.30;;
3549;SDS011;45572;48.804;8.330;2023-03-31T11:01:07;1.90;;;0.90;;
3549;SDS011;45572;48.804;8.330;2023-03-31T11:03:53;3.30;;;1.10;;
3549;SDS011;45572;48.804;8.330;2023-03-31T11:06:28;1.35;;;1.00;;
3549;SDS011;45572;48.804;8.330;2023-03-31T11:09:08;6.30;;;1.50;;
3549;SDS011;45572;48.804;8.330;2023-03-31T11:11:49;3.55;;;1.00;;
3549;SDS011;45572;48.804;8.330;2023-03-31T11:14:27;2.03;;;1.20;;
3549;SDS011;45572;48.804;8.330;2023-03-31T11:17:03;7.25;;;2.55;;
3549;SDS011;45572;48.804;8.330;2023-03-31T11:19:45;1.23;;;1.10;;
3549;SDS011;45572;48.804;8.330;2023-03-31T11:22:20;2.47;;;0.90;;
3549;SDS011;45572;48.804;8.330;2023-03-31T11:25:01;3.45;;;0.85;;
3549;SDS011;45572;48.804;8.330;2023-03-31T11:27:42;1.13;;;0.60;;
3549;SDS011;45572;48.804;8.330;2023-03-31T11:30:27;4.40;;;0.98;;
3549;SDS011;45572;48.804;8.330;2023-03-31T11:33:02;1.80;;;0.70;;
3549;SDS011;45572;48.804;8.330;2023-03-31T11:35:44;1.38;;;0.70;;
3549;SDS011;45572;48.804;8.330;2023-03-31T11:38:29;2.80;;;0.88;;
3549;SDS011;45572;48.804;8.330;2023-03-31T11:41:07;1.30;;;0.60;;
3549;SDS011;45572;48.804;8.330;2023-03-31T11:43:41;2.80;;;0.60;;
3549;SDS011;45572;48.804;8.330;2023-03-31T11:46:16;2.20;;;1.08;;
3549;SDS011;45572;48.804;8.330;2023-03-31T11:48:52;3.42;;;0.70;;
3549;SDS011;45572;48.804;8.330;2023-03-31T11:51:27;2.92;;;0.70;;
3549;SDS011;45572;48.804;8.330;2023-03-31T11:54:01;1.40;;;0.73;;
3549;SDS011;45572;48.804;8.330;2023-03-31T11:56:40;2.45;;;0.70;;
3549;SDS011;45572;48.804;8.330;2023-03-31T11:59:08;2.67;;;1.00;;
3549;SDS011;45572;48.804;8.330;2023-03-31T12:01:43;5.70;;;1.35;;
3549;SDS011;45572;48.804;8.330;2023-03-31T12:04:21;5.13;;;0.80;;
3549;SDS011;45572;48.804;8.330;2023-03-31T12:07:00;2.20;;;1.02;;
3549;SDS011;45572;48.804;8.330;2023-03-31T12:09:36;2.65;;;1.00;;
3549;SDS011;45572;48.804;8.330;2023-03-31T12:12:14;7.05;;;1.13;;
3549;SDS011;45572;48.804;8.330;2023-03-31T12:14:47;1.85;;;0.70;;
3549;SDS011;45572;48.804;8.330;2023-03-31T12:17:19;6.18;;;0.93;;
3549;SDS011;45572;48.804;8.330;2023-03-31T12:19:52;5.07;;;0.90;;
3549;SDS011;45572;48.804;8.330;2023-03-31T12:22:24;5.25;;;1.20;;
3549;SDS011;45572;48.804;8.330;2023-03-31T12:24:55;2.88;;;1.67;;
3549;SDS011;45572;48.804;8.330;2023-03-31T12:27:24;6.18;;;0.80;;
3549;SDS011;45572;48.804;8.330;2023-03-31T12:29:56;3.45;;;1.05;;
3549;SDS011;45572;48.804;8.330;2023-03-31T12:32:27;3.65;;;1.20;;
3549;SDS011;45572;48.804;8.330;2023-03-31T12:35:03;4.50;;;1.65;;
3549;SDS011;45572;48.804;8.330;2023-03-31T12:37:46;5.60;;;1.27;;
3549;SDS011;45572;48.804;8.330;2023-03-31T12:40:36;4.45;;;1.80;;
3549;SDS011;45572;48.804;8.330;2023-03-31T12:43:16;6.60;;;1.40;;
3549;SDS011;45572;48.804;8.330;2023-03-31T12:45:53;8.75;;;2.28;;
3549;SDS011;45572;48.804;8.330;2023-03-31T12:48:35;3.30;;;1.13;;
3549;SDS011;45572;48.804;8.330;2023-03-31T12:51:19;3.55;;;1.70;;
3549;SDS011;45572;48.804;8.330;2023-03-31T12:54:02;2.30;;;0.95;;
3549;SDS011;45572;48.804;8.330;2023-03-31T12:59:32;7.45;;;2.17;;
3549;SDS011;45572;48.804;8.330;2023-03-31T13:04:49;1.98;;;0.80;;
3549;SDS011;45572;48.804;8.330;2023-03-31T13:07:33;2.40;;;1.13;;
3549;SDS011;45572;48.804;8.330;2023-03-31T13:12:57;0.98;;;0.80;;
3549;SDS011;45572;48.804;8.330;2023-03-31T13:15:28;5.78;;;1.40;;
3549;SDS011;45572;48.804;8.330;2023-03-31T13:17:58;5.82;;;1.05;;
3549;SDS011;45572;48.804;8.330;2023-03-31T13:20:35;4.55;;;0.70;;
3549;SDS011;45572;48.804;8.330;2023-03-31T13:23:05;6.90;;;1.20;;
3549;SDS011;45572;48.804;8.330;2023-03-31T13:25:44;4.43;;;1.17;;
3549;SDS011;45572;48.804;8.330;2023-03-31T13:28:16;2.55;;;1.13;;
3549;SDS011;45572;48.804;8.330;2023-03-31T13:30:53;2.10;;;1.05;;
3549;SDS011;45572;48.804;8.330;2023-03-31T13:33:26;4.95;;;1.23;;
3549;SDS011;45572;48.804;8.330;2023-03-31T13:36:09;1.38;;;0.60;;
3549;SDS011;45572;48.804;8.330;2023-03-31T13:39:01;9.52;;;2.60;;
3549;SDS011;45572;48.804;8.330;2023-03-31T13:41:45;6.65;;;0.77;;
3549;SDS011;45572;48.804;8.330;2023-03-31T13:44:25;1.30;;;0.60;;
3549;SDS011;45572;48.804;8.330;2023-03-31T13:47:30;1.90;;;0.70;;
3549;SDS011;45572;48.804;8.330;2023-03-31T13:50:15;12.43;;;0.80;;
3549;SDS011;45572;48.804;8.330;2023-03-31T13:52:57;1.60;;;0.82;;
3549;SDS011;45572;48.804;8.330;2023-03-31T13:55:39;7.03;;;1.98;;
3549;SDS011;45572;48.804;8.330;2023-03-31T13:58:32;2.10;;;1.08;;
3549;SDS011;45572;48.804;8.330;2023-03-31T14:01:15;3.30;;;1.98;;
3549;SDS011;45572;48.804;8.330;2023-03-31T14:04:01;5.20;;;1.35;;
3549;SDS011;45572;48.804;8.330;2023-03-31T14:06:40;2.05;;;0.90;;
3549;SDS011;45572;48.804;8.330;2023-03-31T14:09:18;2.45;;;0.70;;
3549;SDS011;45572;48.804;8.330;2023-03-31T14:11:51;2.92;;;0.70;;
3549;SDS011;45572;48.804;8.330;2023-03-31T14:14:23;7.93;;;0.80;;
3549;SDS011;45572;48.804;8.330;2023-03-31T14:16:52;6.07;;;1.38;;
3549;SDS011;45572;48.804;8.330;2023-03-31T14:19:30;3.67;;;0.90;;
3549;SDS011;45572;48.804;8.330;2023-03-31T14:22:13;4.10;;;2.03;;
3549;SDS011;45572;48.804;8.330;2023-03-31T14:24:53;3.15;;;0.93;;
3549;SDS011;45572;48.804;8.330;2023-03-31T14:27:33;3.08;;;0.80;;
3549;SDS011;45572;48.804;8.330;2023-03-31T14:30:14;2.35;;;0.70;;
3549;SDS011;45572;48.804;8.330;2023-03-31T14:32:53;1.55;;;0.50;;
3549;SDS011;45572;48.804;8.330;2023-03-31T14:35:32;4.15;;;0.50;;
3549;SDS011;45572;48.804;8.330;2023-03-31T14:38:04;1.30;;;0.68;;
3549;SDS011;45572;48.804;8.330;2023-03-31T14:40:41;4.95;;;0.98;;
3549;SDS011;45572;48.804;8.330;2023-03-31T14:43:16;1.98;;;0.60;;
3549;SDS011;45572;48.804;8.330;2023-03-31T14:45:47;2.22;;;0.63;;
3549;SDS011;45572;48.804;8.330;2023-03-31T14:48:23;2.83;;;0.60;;
3549;SDS011;45572;48.804;8.330;2023-03-31T14:50:55;2.70;;;0.90;;
3549;SDS011;45572;48.804;8.330;2023-03-31T14:53:24;3.47;;;0.90;;
3549;SDS011;45572;48.804;8.330;2023-03-31T14:55:56;2.30;;;0.80;;
3549;SDS011;45572;48.804;8.330;2023-03-31T14:58:29;3.08;;;0.70;;
3549;SDS011;45572;48.804;8.330;2023-03-31T15:01:02;2.67;;;0.70;;
3549;SDS011;45572;48.804;8.330;2023-03-31T15:03:32;5.95;;;0.98;;
3549;SDS011;45572;48.804;8.330;2023-03-31T15:06:07;3.15;;;0.82;;
3549;SDS011;45572;48.804;8.330;2023-03-31T15:08:36;2.95;;;0.95;;
3549;SDS011;45572;48.804;8.330;2023-03-31T15:11:05;4.13;;;1.15;;
3549;SDS011;45572;48.804;8.330;2023-03-31T15:13:39;3.40;;;0.95;;
3549;SDS011;45572;48.804;8.330;2023-03-31T15:16:32;5.03;;;0.70;;
3549;SDS011;45572;48.804;8.330;2023-03-31T15:19:04;2.97;;;0.82;;
3549;SDS011;45572;48.804;8.330;2023-03-31T15:21:39;1.73;;;0.88;;
3549;SDS011;45572;48.804;8.330;2023-03-31T15:24:09;6.45;;;1.23;;
3549;SDS011;45572;48.804;8.330;2023-03-31T15:26:39;4.70;;;0.80;;
3549;SDS011;45572;48.804;8.330;2023-03-31T15:29:12;6.35;;;1.10;;
3549;SDS011;45572;48.804;8.330;2023-03-31T15:31:46;2.88;;;0.80;;
3549;SDS011;45572;48.804;8.330;2023-03-31T15:34:18;5.95;;;1.15;;
3549;SDS011;45572;48.804;8.330;2023-03-31T15:36:52;3.28;;;0.73;;
3549;SDS011;45572;48.804;8.330;2023-03-31T15:39:21;3.78;;;0.90;;
3549;SDS011;45572;48.804;8.330;2023-03-31T15:41:51;6.82;;;3.50;;
3549;SDS011;45572;48.804;8.330;2023-03-31T15:47:07;3.17;;;0.65;;
3549;SDS011;45572;48.804;8.330;2023-03-31T15:49:46;2.55;;;0.70;;
3549;SDS011;45572;48.804;8.330;2023-03-31T15:52:20;1.30;;;0.60;;
3549;SDS011;45572;48.804;8.330;2023-03-31T15:54:52;3.30;;;0.68;;
3549;SDS011;45572;48.804;8.330;2023-03-31T15:57:20;3.42;;;0.80;;